Latest Coastal Weather Observations for Cape Borda

IDS60701

Issued at 2:01 pm CST Monday 15 July 2024 (issued every 10 minutes, with the page automatically refreshed every 10 minutes)

About coastal observations | Map of coastal stations | Coastal observations for SA | Marine services | Other Formats
Station Details ID: 022823 Name: CAPE BORDA Lat: -35.75 Lon: 136.60 Height: 158.0 m
Data from the previous 72 hours. | See also: Recent months at Cape Borda
Date/Time
CST
Wind Sea
Height
m
Swell Vis
km
Cloud Weather Temp
°C
Press
MSL
hPa
Rain since
9am
mm
Dir  Spd
kts
Gust
kts
Height
m
Period
s
Dir
15/02:00pm S 13 18 - - - - - - - 10.4 1016.9 0.0
15/01:30pm S 13 19 - - - - - - - 11.0 1017.2 0.0
15/01:19pm S 15 26 - - - - - - - 10.1 1017.2 0.0
15/01:00pm S 15 22 - - - - - - - 10.1 1017.4 0.0
15/12:30pm S 17 24 - - - - - - - 11.9 1017.5 0.0
15/12:00pm S 15 22 - - - - - - - 11.5 1018.0 0.0
15/11:30am SSW 15 18 - - - - - - - 10.7 1018.4 0.0
15/11:00am S 14 21 - - - - - - - 11.6 1018.5 0.0
15/10:30am S 14 19 - - - - - - - 10.9 1018.7 0.0
15/10:00am S 11 16 - - - - - - - 10.5 1018.6 0.0
15/09:30am SSE 10 15 - - - - - - - 9.9 1018.5 0.0
15/09:00am S 14 22 - - - - - - Recent precip. 9.5 1018.1 2.6
15/08:59am S 13 22 - - - - - - - 9.6 1018.1 2.6
15/08:30am SSE 8 10 - - - - - - - 8.4 1017.9 2.6
15/08:00am S 7 8 - - - - - - - 8.2 1017.8 2.4
15/07:30am S 10 14 - - - - - - - 8.5 1017.7 2.4
15/07:00am S 10 12 - - - - - - - 7.7 1017.5 1.6
15/06:30am S 9 11 - - - - - - - 7.0 1017.4 1.6
15/06:00am S 11 14 - - - - - - - 7.4 1017.2 1.6
15/05:30am SSE 9 10 - - - - - - - 7.7 1017.1 1.6
15/05:00am S 10 13 - - - - - - - 8.2 1017.1 1.6
15/04:30am S 10 12 - - - - - - - 7.7 1017.1 1.6
15/04:00am S 11 12 - - - - - - - 7.5 1017.1 1.6
15/03:30am S 11 13 - - - - - - - 7.9 1017.2 1.6
15/03:00am S 10 13 - - - - - - - 8.2 1017.3 1.6
15/02:30am S 11 14 - - - - - - - 8.8 1017.3 1.6
15/02:00am S 11 14 - - - - - - - 8.7 1017.4 1.6
15/01:30am S 10 13 - - - - - - - 8.6 1017.5 1.6
15/01:00am SSE 9 11 - - - - - - - 8.6 1017.6 1.6
15/12:30am SSE 9 11 - - - - - - - 8.8 1018.1 1.2
15/12:00am SSE 11 14 - - - - - - Recent precip. 8.8 1018.1 1.0
 
Date/Time
CST
Wind Sea
Height
m
Swell Vis
km
Cloud Weather Temp
°C
Press
MSL
hPa
Rain since
9am
mm
Dir  Spd
kts
Gust
kts
Height
m
Period
s
Dir
14/11:30pm SSW 8 14 - - - - - - - 9.1 1018.5 1.0
14/11:00pm SSE 11 13 - - - - - - - 8.6 1018.6 0.4
14/10:30pm SSE 10 13 - - - - - - - 8.9 1018.7 0.4
14/10:00pm SSE 11 15 - - - - - - - 9.0 1018.9 0.4
14/09:30pm SSE 11 16 - - - - - - - 9.2 1019.1 0.4
14/09:00pm SSE 8 9 - - - - - - - 8.1 1019.1 0.4
14/08:30pm SSE 8 8 - - - - - - - 8.2 1019.2 0.4
14/08:00pm SSE 9 10 - - - - - - - 8.7 1019.4 0.4
14/07:30pm S 9 13 - - - - - - - 9.2 1019.5 0.2
14/07:00pm S 8 10 - - - - - - - 9.0 1019.4 0.0
14/06:30pm SSE 8 9 - - - - - - - 8.6 1019.1 0.0
14/06:00pm SSE 9 10 - - - - - - - 9.0 1018.9 0.0
14/05:30pm S 8 11 - - - - - - - 9.8 1018.8 0.0
14/05:00pm S 9 11 - - - - - - - 10.5 1018.7 0.0
14/04:30pm S 9 12 - - - - - - - 11.2 1018.6 0.0
14/04:00pm SSW 11 17 - - - - - - - 13.3 1018.5 0.0
14/03:30pm SSW 12 16 - - - - - - - 13.4 1018.5 0.0
14/03:00pm SSW 13 17 - - - - - - - 13.0 1018.3 0.0
14/02:30pm SW 9 14 - - - - - - - 12.9 1018.5 0.0
14/02:00pm SSW 13 18 - - - - - - - 13.0 1018.6 0.0
14/01:30pm SSW 13 16 - - - - - - - 13.5 1018.7 0.0
14/01:00pm SSW 12 17 - - - - - - - 13.1 1019.0 0.0
14/12:30pm SW 11 14 - - - - - - - 13.0 1019.3 0.0
14/12:00pm SW 9 11 - - - - - - - 12.1 1019.9 0.0
14/11:30am SSW 7 9 - - - - - - - 11.9 1020.6 0.0
14/11:00am SSW 10 13 - - - - - - - 11.7 1021.0 0.0
14/10:30am S 8 11 - - - - - - - 10.5 1021.2 0.0
14/10:00am SW 7 10 - - - - - - - 11.9 1021.1 0.0
14/09:30am SSW 6 8 - - - - - - - 11.2 1021.0 0.0
14/09:00am S 5 7 - - - - - - - 11.1 1020.8 3.4
14/08:30am S 7 8 - - - - - - - 9.2 1020.6 3.4
14/08:00am S 7 8 - - - - - - - 8.6 1020.3 3.4
14/07:30am SSE 9 11 - - - - - - - 8.5 1020.3 3.4
14/07:00am SSE 9 10 - - - - - - - 7.9 1020.1 3.2
14/06:30am SSE 9 10 - - - - - - - 8.0 1020.1 3.2
14/06:00am SSE 9 10 - - - - - - - 8.1 1019.7 3.2
14/05:30am SSE 8 9 - - - - - - - 8.2 1019.5 3.2
14/05:00am SSE 7 8 - - - - - - - 8.2 1019.4 3.2
14/04:30am SSE 8 9 - - - - - - - 8.5 1019.5 3.2
14/04:00am SSE 8 8 - - - - - - - 8.3 1019.6 3.2
14/03:30am SSE 8 9 - - - - - - - 8.1 1019.6 3.2
14/03:00am SSE 8 9 - - - - - - - 7.7 1019.6 3.2
14/02:30am S 9 11 - - - - - - - 8.8 1019.5 3.2
14/02:00am S 8 9 - - - - - - - 8.5 1019.5 3.2
14/01:30am S 7 7 - - - - - - - 8.5 1019.6 3.2
14/01:00am S 8 9 - - - - - - - 8.6 1019.5 3.2
14/12:30am S 9 10 - - - - - - - 8.8 1019.6 3.0
14/12:00am S 9 12 - - - - - - Recent precip. 9.1 1019.8 3.0
 
Date/Time
CST
Wind Sea
Height
m
Swell Vis
km
Cloud Weather Temp
°C
Press
MSL
hPa
Rain since
9am
mm
Dir  Spd
kts
Gust
kts
Height
m
Period
s
Dir
13/11:30pm SSE 8 9 - - - - - - - 8.9 1020.2 2.8
13/11:00pm S 8 9 - - - - - - - 9.1 1020.2 2.8
13/10:30pm S 8 9 - - - - - - - 9.4 1020.1 2.8
13/10:00pm S 7 8 - - - - - - - 8.8 1020.1 2.6
13/09:30pm SSE 8 8 - - - - - - - 8.9 1020.1 2.6
13/09:00pm SSE 6 7 - - - - - - - 8.9 1019.9 2.6
13/08:30pm SSE 7 7 - - - - - - - 9.1 1019.8 2.6
13/08:00pm SSE 8 9 - - - - - - - 9.4 1019.6 2.6
13/07:30pm SSE 8 10 - - - - - - - 9.9 1019.5 2.6
13/07:00pm SSW 8 11 - - - - - - - 10.5 1019.3 2.6
13/06:30pm SSW 8 10 - - - - - - - 10.6 1019.1 2.4
13/06:00pm S 6 9 - - - - - - Recent precip. 11.1 1019.0 2.4
13/05:30pm SSW 7 10 - - - - - - - 11.5 1018.8 1.4
13/05:00pm SSW 7 10 - - - - - - - 11.8 1018.6 1.4
13/04:30pm SW 8 10 - - - - - - - 12.3 1018.7 1.4
13/04:00pm SW 8 11 - - - - - - - 12.3 1018.7 1.4
13/03:30pm WSW 8 11 - - - - - - - 12.6 1018.7 1.4
13/03:00pm WSW 9 12 - - - - - - - 13.6 1018.5 1.4
13/02:30pm WSW 10 14 - - - - - - - 13.7 1018.5 1.4
13/02:00pm WSW 9 11 - - - - - - - 13.7 1018.4 1.4
13/01:30pm SW 8 10 - - - - - - - 12.4 1018.7 1.4
13/01:00pm SW 9 13 - - - - - - - 12.6 1019.0 1.4
13/12:30pm WSW 6 9 - - - - - - - 11.8 1019.4 1.4
13/12:00pm W 8 13 - - - - - - - 13.4 1019.8 0.4
13/11:30am WSW 6 8 - - - - - - - 13.0 1020.2 0.4
13/11:00am WNW 4 6 - - - - - - - 12.2 1020.5 0.4
13/10:30am WNW 7 10 - - - - - - - 11.7 1020.7 0.4
13/10:00am WSW 7 9 - - - - - - - 11.2 1020.7 0.4
13/09:30am W 8 16 - - - - - - - 13.1 1020.3 0.0
13/09:00am WSW 6 8 - - - - - - - 12.5 1019.9 1.0
13/08:30am SW 5 8 - - - - - - - 11.0 1019.6 1.0
13/08:00am SE 5 6 - - - - - - - 9.4 1019.5 1.0
13/07:30am SE 3 4 - - - - - - - 9.8 1019.3 1.0
13/07:00am SSE 7 10 - - - - - - - 9.9 1019.3 1.0
13/06:30am W 7 8 - - - - - - - 11.1 1019.1 1.0
13/06:00am WSW 5 9 - - - - - - - 11.0 1018.9 1.0
13/05:30am SW 5 7 - - - - - - - 9.9 1018.7 1.0
13/05:00am SW 6 8 - - - - - - - 9.7 1018.6 1.0
13/04:30am SSW 6 8 - - - - - - - 9.5 1018.5 1.0
13/04:00am S 6 7 - - - - - - - 9.5 1018.4 1.0
13/03:30am S 7 9 - - - - - - - 9.9 1018.4 1.0
13/03:00am SW 7 8 - - - - - - - 10.9 1018.6 1.0
13/02:30am SSW 7 9 - - - - - - - 10.7 1018.4 1.0
13/02:00am SSW 7 11 - - - - - - - 12.1 1018.4 1.0
13/01:30am SW 10 13 - - - - - - - 12.3 1018.3 1.0
13/01:00am SW 9 11 - - - - - - - 11.8 1018.5 1.0
13/12:30am SW 9 13 - - - - - - - 12.0 1018.6 1.0
13/12:00am SW 9 13 - - - - - - - 12.3 1018.7 1.0
 
Date/Time
CST
Wind Sea
Height
m
Swell Vis
km
Cloud Weather Temp
°C
Press
MSL
hPa
Rain since
9am
mm
Dir  Spd
kts
Gust
kts
Height
m
Period
s
Dir
12/11:30pm SW 10 15 - - - - - - - 11.9 1018.8 1.0
12/11:00pm SW 10 13 - - - - - - - 12.0 1019.0 1.0
12/10:30pm SW 9 12 - - - - - - - 11.1 1019.2 1.0
12/10:00pm SSW 7 10 - - - - - - - 10.8 1019.1 1.0
12/09:30pm SW 11 14 - - - - - - - 11.3 1019.0 1.0
12/09:00pm SW 8 12 - - - - - - Recent precip. 11.7 1018.8 1.0
12/08:30pm SW 9 12 - - - - - - - 11.9 1018.6 1.0
12/08:00pm SW 8 11 - - - - - - - 11.8 1018.5 0.8
12/07:30pm SW 12 17 - - - - - - - 11.8 1018.2 0.8
12/07:00pm SW 10 14 - - - - - - - 11.8 1017.9 0.8
12/06:30pm SW 10 14 - - - - - - - 11.5 1017.6 0.8
12/06:00pm SW 8 11 - - - - - - Recent precip. 11.9 1017.3 0.8
12/05:30pm WSW 14 21 - - - - - - - 11.6 1017.1 0.8
12/05:00pm SW 10 13 - - - - - - - 13.3 1017.0 0.0
12/04:30pm WSW 12 16 - - - - - - - 14.0 1016.7 0.0
12/04:00pm WSW 10 15 - - - - - - - 14.3 1016.8 0.0
12/03:30pm WSW 10 15 - - - - - - - 14.4 1016.7 0.0
12/03:00pm WSW 13 17 - - - - - - - 14.4 1016.5 0.0
12/02:30pm SW 12 18 - - - - - - - 14.5 1016.5 0.0

Other formats

Comma delimited format used in spreadsheet applications
http://www.bom.gov.au/fwo/IDS60701/IDS60701.95805.axf

JavaScript Object Notation format (JSON) in row-major order
http://www.bom.gov.au/fwo/IDS60701/IDS60701.95805.json

Data quality

Most of these data are generated automatically and are frequently updated. Quality checks on data are not normally performed. It is possible for incorrect values to appear. Refer to information at About Latest Weather Observations and please check the disclaimer before using these data.